sensor_id;sensor_type;location;lat;lon;timestamp;P1;durP1;ratioP1;P2;durP2;ratioP2
53650;SDS011;39552;45.776;15.892;2023-01-19T00:01:13;26.67;;;18.85;;
53650;SDS011;39552;45.776;15.892;2023-01-19T00:03:44;23.13;;;17.87;;
53650;SDS011;39552;45.776;15.892;2023-01-19T00:06:10;24.02;;;18.83;;
53650;SDS011;39552;45.776;15.892;2023-01-19T00:08:37;23.38;;;18.17;;
53650;SDS011;39552;45.776;15.892;2023-01-19T00:11:04;26.80;;;18.80;;
53650;SDS011;39552;45.776;15.892;2023-01-19T00:13:30;21.75;;;17.05;;
53650;SDS011;39552;45.776;15.892;2023-01-19T00:15:57;23.58;;;17.40;;
53650;SDS011;39552;45.776;15.892;2023-01-19T00:18:24;24.20;;;17.88;;
53650;SDS011;39552;45.776;15.892;2023-01-19T00:20:52;21.50;;;16.17;;
53650;SDS011;39552;45.776;15.892;2023-01-19T00:23:18;24.42;;;16.90;;
53650;SDS011;39552;45.776;15.892;2023-01-19T00:25:45;19.73;;;15.27;;
53650;SDS011;39552;45.776;15.892;2023-01-19T00:28:12;19.15;;;15.25;;
53650;SDS011;39552;45.776;15.892;2023-01-19T00:30:39;18.70;;;15.63;;
53650;SDS011;39552;45.776;15.892;2023-01-19T00:33:06;19.52;;;15.27;;
53650;SDS011;39552;45.776;15.892;2023-01-19T00:35:33;18.10;;;14.13;;
53650;SDS011;39552;45.776;15.892;2023-01-19T00:38:01;15.65;;;13.68;;
53650;SDS011;39552;45.776;15.892;2023-01-19T00:40:28;19.42;;;14.85;;
53650;SDS011;39552;45.776;15.892;2023-01-19T00:42:54;17.08;;;13.75;;
53650;SDS011;39552;45.776;15.892;2023-01-19T00:45:21;19.00;;;14.50;;
53650;SDS011;39552;45.776;15.892;2023-01-19T00:47:49;17.40;;;13.82;;
53650;SDS011;39552;45.776;15.892;2023-01-19T00:50:16;18.33;;;13.85;;
53650;SDS011;39552;45.776;15.892;2023-01-19T00:52:42;17.55;;;14.00;;
53650;SDS011;39552;45.776;15.892;2023-01-19T00:55:11;18.20;;;14.07;;
53650;SDS011;39552;45.776;15.892;2023-01-19T00:57:38;16.08;;;13.07;;
53650;SDS011;39552;45.776;15.892;2023-01-19T01:00:06;14.95;;;13.18;;
53650;SDS011;39552;45.776;15.892;2023-01-19T01:02:33;15.38;;;13.05;;
53650;SDS011;39552;45.776;15.892;2023-01-19T01:05:00;15.05;;;12.48;;
53650;SDS011;39552;45.776;15.892;2023-01-19T01:07:27;14.20;;;11.82;;
53650;SDS011;39552;45.776;15.892;2023-01-19T01:09:54;15.93;;;12.90;;
53650;SDS011;39552;45.776;15.892;2023-01-19T01:12:21;13.25;;;11.80;;
53650;SDS011;39552;45.776;15.892;2023-01-19T01:14:48;16.23;;;12.35;;
53650;SDS011;39552;45.776;15.892;2023-01-19T01:17:15;13.50;;;11.77;;
53650;SDS011;39552;45.776;15.892;2023-01-19T01:19:41;12.90;;;11.20;;
53650;SDS011;39552;45.776;15.892;2023-01-19T01:22:08;13.27;;;11.30;;
53650;SDS011;39552;45.776;15.892;2023-01-19T01:24:34;13.57;;;11.70;;
53650;SDS011;39552;45.776;15.892;2023-01-19T01:27:01;12.52;;;10.57;;
53650;SDS011;39552;45.776;15.892;2023-01-19T01:29:29;11.43;;;10.05;;
53650;SDS011;39552;45.776;15.892;2023-01-19T01:31:55;11.43;;;9.48;;
53650;SDS011;39552;45.776;15.892;2023-01-19T01:34:22;11.93;;;10.65;;
53650;SDS011;39552;45.776;15.892;2023-01-19T01:36:48;13.40;;;10.98;;
53650;SDS011;39552;45.776;15.892;2023-01-19T01:39:15;11.50;;;10.30;;
53650;SDS011;39552;45.776;15.892;2023-01-19T01:41:42;11.00;;;9.90;;
53650;SDS011;39552;45.776;15.892;2023-01-19T01:46:56;9.43;;;8.43;;
53650;SDS011;39552;45.776;15.892;2023-01-19T01:49:24;7.72;;;6.78;;
53650;SDS011;39552;45.776;15.892;2023-01-19T01:51:51;7.80;;;7.10;;
53650;SDS011;39552;45.776;15.892;2023-01-19T01:54:19;8.13;;;7.07;;
53650;SDS011;39552;45.776;15.892;2023-01-19T01:56:47;7.25;;;6.55;;
53650;SDS011;39552;45.776;15.892;2023-01-19T01:59:14;6.65;;;6.07;;
53650;SDS011;39552;45.776;15.892;2023-01-19T02:01:41;6.40;;;5.80;;
53650;SDS011;39552;45.776;15.892;2023-01-19T02:04:09;6.90;;;6.30;;
53650;SDS011;39552;45.776;15.892;2023-01-19T02:06:36;7.45;;;6.38;;
53650;SDS011;39552;45.776;15.892;2023-01-19T02:09:03;6.40;;;5.82;;
53650;SDS011;39552;45.776;15.892;2023-01-19T02:11:31;6.80;;;5.75;;
53650;SDS011;39552;45.776;15.892;2023-01-19T02:13:58;6.13;;;5.65;;
53650;SDS011;39552;45.776;15.892;2023-01-19T02:16:25;6.97;;;6.28;;
53650;SDS011;39552;45.776;15.892;2023-01-19T02:18:51;7.90;;;6.18;;
53650;SDS011;39552;45.776;15.892;2023-01-19T02:21:20;6.18;;;5.68;;
53650;SDS011;39552;45.776;15.892;2023-01-19T02:23:49;6.30;;;5.70;;
53650;SDS011;39552;45.776;15.892;2023-01-19T02:26:17;5.95;;;5.45;;
53650;SDS011;39552;45.776;15.892;2023-01-19T02:28:45;6.43;;;5.85;;
53650;SDS011;39552;45.776;15.892;2023-01-19T02:31:13;6.18;;;5.68;;
53650;SDS011;39552;45.776;15.892;2023-01-19T02:33:40;5.25;;;4.85;;
53650;SDS011;39552;45.776;15.892;2023-01-19T02:36:06;5.65;;;5.15;;
53650;SDS011;39552;45.776;15.892;2023-01-19T02:38:34;5.43;;;5.03;;
53650;SDS011;39552;45.776;15.892;2023-01-19T02:41:03;5.53;;;5.07;;
53650;SDS011;39552;45.776;15.892;2023-01-19T02:43:31;5.13;;;4.72;;
53650;SDS011;39552;45.776;15.892;2023-01-19T02:45:58;5.32;;;4.93;;
53650;SDS011;39552;45.776;15.892;2023-01-19T02:48:25;4.55;;;4.20;;
53650;SDS011;39552;45.776;15.892;2023-01-19T02:50:51;4.57;;;4.28;;
53650;SDS011;39552;45.776;15.892;2023-01-19T02:53:21;4.30;;;3.90;;
53650;SDS011;39552;45.776;15.892;2023-01-19T02:55:51;4.00;;;3.70;;
53650;SDS011;39552;45.776;15.892;2023-01-19T02:58:21;3.60;;;3.30;;
53650;SDS011;39552;45.776;15.892;2023-01-19T03:00:52;4.00;;;3.70;;
53650;SDS011;39552;45.776;15.892;2023-01-19T03:03:23;5.10;;;4.50;;
53650;SDS011;39552;45.776;15.892;2023-01-19T03:05:52;4.20;;;3.90;;
53650;SDS011;39552;45.776;15.892;2023-01-19T03:08:21;4.70;;;4.30;;
53650;SDS011;39552;45.776;15.892;2023-01-19T03:10:52;4.45;;;4.10;;
53650;SDS011;39552;45.776;15.892;2023-01-19T03:13:25;4.35;;;4.05;;
53650;SDS011;39552;45.776;15.892;2023-01-19T03:18:19;4.65;;;4.25;;
53650;SDS011;39552;45.776;15.892;2023-01-19T03:20:46;4.60;;;4.20;;
53650;SDS011;39552;45.776;15.892;2023-01-19T03:23:14;5.38;;;4.38;;
53650;SDS011;39552;45.776;15.892;2023-01-19T03:25:42;4.28;;;3.97;;
53650;SDS011;39552;45.776;15.892;2023-01-19T03:28:09;3.58;;;3.38;;
53650;SDS011;39552;45.776;15.892;2023-01-19T03:30:39;4.18;;;3.78;;
53650;SDS011;39552;45.776;15.892;2023-01-19T03:33:07;4.18;;;3.88;;
53650;SDS011;39552;45.776;15.892;2023-01-19T03:35:37;4.40;;;4.10;;
53650;SDS011;39552;45.776;15.892;2023-01-19T03:38:05;4.78;;;4.38;;
53650;SDS011;39552;45.776;15.892;2023-01-19T03:40:33;4.75;;;4.35;;
53650;SDS011;39552;45.776;15.892;2023-01-19T03:43:00;4.50;;;4.20;;
53650;SDS011;39552;45.776;15.892;2023-01-19T03:45:28;4.90;;;4.50;;
53650;SDS011;39552;45.776;15.892;2023-01-19T03:47:57;4.90;;;4.40;;
53650;SDS011;39552;45.776;15.892;2023-01-19T03:50:25;3.53;;;3.22;;
53650;SDS011;39552;45.776;15.892;2023-01-19T03:53:04;3.20;;;3.00;;
53650;SDS011;39552;45.776;15.892;2023-01-19T03:55:31;3.78;;;3.40;;
53650;SDS011;39552;45.776;15.892;2023-01-19T03:57:57;3.78;;;3.40;;
53650;SDS011;39552;45.776;15.892;2023-01-19T04:00:24;3.40;;;3.20;;
53650;SDS011;39552;45.776;15.892;2023-01-19T04:02:50;5.20;;;4.10;;
53650;SDS011;39552;45.776;15.892;2023-01-19T04:05:18;4.22;;;3.80;;
53650;SDS011;39552;45.776;15.892;2023-01-19T04:07:46;3.92;;;3.58;;
53650;SDS011;39552;45.776;15.892;2023-01-19T04:10:14;4.63;;;3.60;;
53650;SDS011;39552;45.776;15.892;2023-01-19T04:12:41;3.35;;;3.00;;
53650;SDS011;39552;45.776;15.892;2023-01-19T04:15:08;2.58;;;2.38;;
53650;SDS011;39552;45.776;15.892;2023-01-19T04:17:34;1.60;;;1.50;;
53650;SDS011;39552;45.776;15.892;2023-01-19T04:20:01;0.88;;;0.88;;
53650;SDS011;39552;45.776;15.892;2023-01-19T04:22:28;2.25;;;2.15;;
53650;SDS011;39552;45.776;15.892;2023-01-19T04:24:55;0.95;;;0.95;;
53650;SDS011;39552;45.776;15.892;2023-01-19T04:27:21;0.90;;;0.90;;
53650;SDS011;39552;45.776;15.892;2023-01-19T04:29:48;0.90;;;0.90;;
53650;SDS011;39552;45.776;15.892;2023-01-19T04:32:14;1.00;;;1.00;;
53650;SDS011;39552;45.776;15.892;2023-01-19T04:34:41;1.10;;;1.10;;
53650;SDS011;39552;45.776;15.892;2023-01-19T04:37:08;1.20;;;1.20;;
53650;SDS011;39552;45.776;15.892;2023-01-19T04:39:36;1.20;;;1.20;;
53650;SDS011;39552;45.776;15.892;2023-01-19T04:42:02;1.40;;;1.40;;
53650;SDS011;39552;45.776;15.892;2023-01-19T04:44:29;1.20;;;1.20;;
53650;SDS011;39552;45.776;15.892;2023-01-19T04:46:55;1.48;;;1.48;;
53650;SDS011;39552;45.776;15.892;2023-01-19T04:49:22;1.63;;;1.52;;
53650;SDS011;39552;45.776;15.892;2023-01-19T04:51:48;1.35;;;1.35;;
53650;SDS011;39552;45.776;15.892;2023-01-19T04:54:14;1.50;;;1.50;;
53650;SDS011;39552;45.776;15.892;2023-01-19T04:56:43;1.50;;;1.40;;
53650;SDS011;39552;45.776;15.892;2023-01-19T04:59:09;1.60;;;1.60;;
53650;SDS011;39552;45.776;15.892;2023-01-19T05:01:36;1.90;;;1.80;;
53650;SDS011;39552;45.776;15.892;2023-01-19T05:04:02;2.60;;;1.70;;
53650;SDS011;39552;45.776;15.892;2023-01-19T05:06:29;1.90;;;1.80;;
53650;SDS011;39552;45.776;15.892;2023-01-19T05:08:55;2.17;;;2.08;;
53650;SDS011;39552;45.776;15.892;2023-01-19T05:11:21;1.95;;;1.85;;
53650;SDS011;39552;45.776;15.892;2023-01-19T05:13:52;2.22;;;2.13;;
53650;SDS011;39552;45.776;15.892;2023-01-19T05:16:18;1.80;;;1.70;;
53650;SDS011;39552;45.776;15.892;2023-01-19T05:18:46;1.60;;;1.60;;
53650;SDS011;39552;45.776;15.892;2023-01-19T05:21:13;1.75;;;1.70;;
53650;SDS011;39552;45.776;15.892;2023-01-19T05:23:39;1.70;;;1.60;;
53650;SDS011;39552;45.776;15.892;2023-01-19T05:26:06;1.63;;;1.58;;
53650;SDS011;39552;45.776;15.892;2023-01-19T05:28:34;1.80;;;1.70;;
53650;SDS011;39552;45.776;15.892;2023-01-19T05:31:02;1.80;;;1.73;;
53650;SDS011;39552;45.776;15.892;2023-01-19T05:33:29;1.88;;;1.77;;
53650;SDS011;39552;45.776;15.892;2023-01-19T05:35:55;1.80;;;1.70;;
53650;SDS011;39552;45.776;15.892;2023-01-19T05:38:22;2.03;;;1.92;;
53650;SDS011;39552;45.776;15.892;2023-01-19T05:41:00;2.10;;;2.00;;
53650;SDS011;39552;45.776;15.892;2023-01-19T05:43:27;2.10;;;2.00;;
53650;SDS011;39552;45.776;15.892;2023-01-19T05:45:53;2.00;;;1.90;;
53650;SDS011;39552;45.776;15.892;2023-01-19T05:48:21;1.95;;;1.85;;
53650;SDS011;39552;45.776;15.892;2023-01-19T05:50:48;2.10;;;2.00;;
53650;SDS011;39552;45.776;15.892;2023-01-19T05:53:14;2.20;;;1.95;;
53650;SDS011;39552;45.776;15.892;2023-01-19T05:55:40;1.10;;;1.10;;
53650;SDS011;39552;45.776;15.892;2023-01-19T05:58:13;1.25;;;1.25;;
53650;SDS011;39552;45.776;15.892;2023-01-19T06:00:39;1.35;;;1.35;;
53650;SDS011;39552;45.776;15.892;2023-01-19T06:03:06;1.70;;;1.60;;
53650;SDS011;39552;45.776;15.892;2023-01-19T06:05:34;1.45;;;1.45;;
53650;SDS011;39552;45.776;15.892;2023-01-19T06:08:00;1.38;;;1.38;;
53650;SDS011;39552;45.776;15.892;2023-01-19T06:10:27;1.30;;;1.30;;
53650;SDS011;39552;45.776;15.892;2023-01-19T06:12:54;1.27;;;1.27;;
53650;SDS011;39552;45.776;15.892;2023-01-19T06:15:20;1.30;;;1.30;;
53650;SDS011;39552;45.776;15.892;2023-01-19T06:17:46;1.55;;;1.45;;
53650;SDS011;39552;45.776;15.892;2023-01-19T06:20:13;1.80;;;1.70;;
53650;SDS011;39552;45.776;15.892;2023-01-19T06:22:41;1.40;;;1.40;;
53650;SDS011;39552;45.776;15.892;2023-01-19T06:25:08;1.80;;;1.67;;
53650;SDS011;39552;45.776;15.892;2023-01-19T06:27:35;1.70;;;1.60;;
53650;SDS011;39552;45.776;15.892;2023-01-19T06:30:01;1.80;;;1.60;;
53650;SDS011;39552;45.776;15.892;2023-01-19T06:32:28;1.77;;;1.70;;
53650;SDS011;39552;45.776;15.892;2023-01-19T06:34:54;1.65;;;1.60;;
53650;SDS011;39552;45.776;15.892;2023-01-19T06:37:20;1.88;;;1.77;;
53650;SDS011;39552;45.776;15.892;2023-01-19T06:39:48;2.00;;;1.90;;
53650;SDS011;39552;45.776;15.892;2023-01-19T06:42:15;2.08;;;1.98;;
53650;SDS011;39552;45.776;15.892;2023-01-19T06:44:41;2.00;;;1.90;;
53650;SDS011;39552;45.776;15.892;2023-01-19T06:47:08;3.25;;;1.90;;
53650;SDS011;39552;45.776;15.892;2023-01-19T06:49:41;1.83;;;1.75;;
53650;SDS011;39552;45.776;15.892;2023-01-19T06:52:07;2.65;;;2.30;;
53650;SDS011;39552;45.776;15.892;2023-01-19T06:54:34;2.25;;;2.15;;
53650;SDS011;39552;45.776;15.892;2023-01-19T06:57:02;2.35;;;2.17;;
53650;SDS011;39552;45.776;15.892;2023-01-19T06:59:28;2.22;;;2.13;;
53650;SDS011;39552;45.776;15.892;2023-01-19T07:01:55;2.10;;;2.00;;
53650;SDS011;39552;45.776;15.892;2023-01-19T07:04:22;2.25;;;2.15;;
53650;SDS011;39552;45.776;15.892;2023-01-19T07:06:48;2.20;;;2.10;;
53650;SDS011;39552;45.776;15.892;2023-01-19T07:09:15;2.20;;;2.10;;
53650;SDS011;39552;45.776;15.892;2023-01-19T07:11:42;2.60;;;2.40;;
53650;SDS011;39552;45.776;15.892;2023-01-19T07:14:10;3.15;;;2.90;;
53650;SDS011;39552;45.776;15.892;2023-01-19T07:16:36;3.95;;;3.13;;
53650;SDS011;39552;45.776;15.892;2023-01-19T07:19:03;3.05;;;2.83;;
53650;SDS011;39552;45.776;15.892;2023-01-19T07:21:29;3.13;;;2.83;;
53650;SDS011;39552;45.776;15.892;2023-01-19T07:23:56;3.15;;;2.88;;
53650;SDS011;39552;45.776;15.892;2023-01-19T07:26:22;3.40;;;3.20;;
53650;SDS011;39552;45.776;15.892;2023-01-19T07:28:49;3.22;;;3.03;;
53650;SDS011;39552;45.776;15.892;2023-01-19T07:31:19;3.58;;;3.28;;
53650;SDS011;39552;45.776;15.892;2023-01-19T07:33:46;3.15;;;2.95;;
53650;SDS011;39552;45.776;15.892;2023-01-19T07:36:12;3.30;;;3.10;;
53650;SDS011;39552;45.776;15.892;2023-01-19T07:38:39;3.25;;;3.05;;
53650;SDS011;39552;45.776;15.892;2023-01-19T07:41:06;3.20;;;2.92;;
53650;SDS011;39552;45.776;15.892;2023-01-19T07:43:33;3.65;;;3.35;;
53650;SDS011;39552;45.776;15.892;2023-01-19T07:46:00;3.97;;;3.40;;
53650;SDS011;39552;45.776;15.892;2023-01-19T07:48:28;4.18;;;3.85;;
53650;SDS011;39552;45.776;15.892;2023-01-19T07:50:57;4.47;;;4.07;;
53650;SDS011;39552;45.776;15.892;2023-01-19T07:53:24;5.07;;;4.57;;
53650;SDS011;39552;45.776;15.892;2023-01-19T07:55:52;5.25;;;4.85;;
53650;SDS011;39552;45.776;15.892;2023-01-19T07:58:19;5.40;;;4.90;;
53650;SDS011;39552;45.776;15.892;2023-01-19T08:00:45;6.50;;;5.40;;
53650;SDS011;39552;45.776;15.892;2023-01-19T08:03:12;6.88;;;5.68;;
53650;SDS011;39552;45.776;15.892;2023-01-19T08:05:39;7.20;;;6.05;;
53650;SDS011;39552;45.776;15.892;2023-01-19T08:08:06;10.52;;;7.65;;
53650;SDS011;39552;45.776;15.892;2023-01-19T08:10:32;9.77;;;7.72;;
53650;SDS011;39552;45.776;15.892;2023-01-19T08:12:59;8.18;;;6.80;;
53650;SDS011;39552;45.776;15.892;2023-01-19T08:15:26;8.73;;;7.20;;
53650;SDS011;39552;45.776;15.892;2023-01-19T08:17:59;7.93;;;5.95;;
53650;SDS011;39552;45.776;15.892;2023-01-19T08:20:32;7.35;;;6.22;;
53650;SDS011;39552;45.776;15.892;2023-01-19T08:23:00;8.57;;;6.55;;
53650;SDS011;39552;45.776;15.892;2023-01-19T08:25:30;9.98;;;7.13;;
53650;SDS011;39552;45.776;15.892;2023-01-19T08:27:57;11.23;;;8.13;;
53650;SDS011;39552;45.776;15.892;2023-01-19T08:30:24;12.48;;;8.85;;
53650;SDS011;39552;45.776;15.892;2023-01-19T08:32:55;10.43;;;7.82;;
53650;SDS011;39552;45.776;15.892;2023-01-19T08:35:26;8.75;;;7.90;;
53650;SDS011;39552;45.776;15.892;2023-01-19T08:37:54;9.25;;;8.18;;
53650;SDS011;39552;45.776;15.892;2023-01-19T08:40:22;9.55;;;8.55;;
53650;SDS011;39552;45.776;15.892;2023-01-19T08:42:49;9.50;;;8.60;;
53650;SDS011;39552;45.776;15.892;2023-01-19T08:45:15;9.07;;;8.18;;
53650;SDS011;39552;45.776;15.892;2023-01-19T08:47:42;11.23;;;10.05;;
53650;SDS011;39552;45.776;15.892;2023-01-19T08:50:09;11.13;;;9.93;;
53650;SDS011;39552;45.776;15.892;2023-01-19T08:52:35;10.23;;;9.23;;
53650;SDS011;39552;45.776;15.892;2023-01-19T08:55:02;9.30;;;8.35;;
53650;SDS011;39552;45.776;15.892;2023-01-19T08:57:30;8.68;;;7.78;;
53650;SDS011;39552;45.776;15.892;2023-01-19T08:59:57;6.95;;;6.28;;
53650;SDS011;39552;45.776;15.892;2023-01-19T09:02:39;7.65;;;6.68;;
53650;SDS011;39552;45.776;15.892;2023-01-19T09:05:06;6.00;;;5.00;;
53650;SDS011;39552;45.776;15.892;2023-01-19T09:07:33;4.15;;;3.85;;
53650;SDS011;39552;45.776;15.892;2023-01-19T09:10:01;3.60;;;3.30;;
53650;SDS011;39552;45.776;15.892;2023-01-19T09:12:30;3.55;;;3.35;;
53650;SDS011;39552;45.776;15.892;2023-01-19T09:15:02;4.00;;;3.72;;
53650;SDS011;39552;45.776;15.892;2023-01-19T09:17:35;4.38;;;3.90;;
53650;SDS011;39552;45.776;15.892;2023-01-19T09:20:14;5.60;;;4.30;;
53650;SDS011;39552;45.776;15.892;2023-01-19T09:22:40;4.50;;;4.13;;
53650;SDS011;39552;45.776;15.892;2023-01-19T09:25:07;4.22;;;3.60;;
53650;SDS011;39552;45.776;15.892;2023-01-19T09:27:35;4.05;;;3.75;;
53650;SDS011;39552;45.776;15.892;2023-01-19T09:30:02;3.63;;;3.42;;
53650;SDS011;39552;45.776;15.892;2023-01-19T09:32:29;4.18;;;2.85;;
53650;SDS011;39552;45.776;15.892;2023-01-19T09:34:57;3.03;;;2.83;;
53650;SDS011;39552;45.776;15.892;2023-01-19T09:37:23;3.60;;;3.30;;
53650;SDS011;39552;45.776;15.892;2023-01-19T09:39:50;3.83;;;3.53;;
53650;SDS011;39552;45.776;15.892;2023-01-19T09:42:22;4.10;;;3.80;;
53650;SDS011;39552;45.776;15.892;2023-01-19T09:44:56;3.80;;;3.50;;
53650;SDS011;39552;45.776;15.892;2023-01-19T09:47:31;3.83;;;3.53;;
53650;SDS011;39552;45.776;15.892;2023-01-19T09:50:00;3.38;;;3.10;;
53650;SDS011;39552;45.776;15.892;2023-01-19T09:52:32;7.60;;;3.50;;
53650;SDS011;39552;45.776;15.892;2023-01-19T09:55:01;2.88;;;2.70;;
53650;SDS011;39552;45.776;15.892;2023-01-19T09:57:28;3.00;;;2.80;;
53650;SDS011;39552;45.776;15.892;2023-01-19T09:59:56;3.08;;;2.88;;
53650;SDS011;39552;45.776;15.892;2023-01-19T10:02:29;3.15;;;2.95;;
53650;SDS011;39552;45.776;15.892;2023-01-19T10:04:58;3.50;;;3.20;;
53650;SDS011;39552;45.776;15.892;2023-01-19T10:07:31;3.10;;;2.90;;
53650;SDS011;39552;45.776;15.892;2023-01-19T10:10:12;3.50;;;3.17;;
53650;SDS011;39552;45.776;15.892;2023-01-19T10:12:44;3.20;;;3.00;;
53650;SDS011;39552;45.776;15.892;2023-01-19T10:15:16;2.80;;;2.60;;
53650;SDS011;39552;45.776;15.892;2023-01-19T10:17:48;2.70;;;2.50;;
53650;SDS011;39552;45.776;15.892;2023-01-19T10:20:18;3.00;;;2.80;;
53650;SDS011;39552;45.776;15.892;2023-01-19T10:22:48;3.15;;;2.95;;
53650;SDS011;39552;45.776;15.892;2023-01-19T10:25:16;2.97;;;2.78;;
53650;SDS011;39552;45.776;15.892;2023-01-19T10:27:45;3.10;;;2.90;;
53650;SDS011;39552;45.776;15.892;2023-01-19T10:30:22;4.00;;;3.70;;
53650;SDS011;39552;45.776;15.892;2023-01-19T10:32:56;5.00;;;4.60;;
53650;SDS011;39552;45.776;15.892;2023-01-19T10:38:25;3.90;;;3.60;;
53650;SDS011;39552;45.776;15.892;2023-01-19T10:43:58;3.40;;;3.10;;
53650;SDS011;39552;45.776;15.892;2023-01-19T10:46:31;3.63;;;3.33;;
53650;SDS011;39552;45.776;15.892;2023-01-19T10:49:00;3.60;;;3.40;;
53650;SDS011;39552;45.776;15.892;2023-01-19T10:51:27;2.67;;;2.53;;
53650;SDS011;39552;45.776;15.892;2023-01-19T10:53:56;3.15;;;2.95;;
53650;SDS011;39552;45.776;15.892;2023-01-19T10:56:23;3.40;;;3.20;;
53650;SDS011;39552;45.776;15.892;2023-01-19T10:58:53;3.50;;;3.20;;
53650;SDS011;39552;45.776;15.892;2023-01-19T11:01:20;3.10;;;3.00;;
53650;SDS011;39552;45.776;15.892;2023-01-19T11:03:49;2.95;;;2.72;;
53650;SDS011;39552;45.776;15.892;2023-01-19T11:06:20;3.45;;;3.15;;
53650;SDS011;39552;45.776;15.892;2023-01-19T11:08:47;3.20;;;3.00;;
53650;SDS011;39552;45.776;15.892;2023-01-19T11:11:13;3.10;;;2.90;;
53650;SDS011;39552;45.776;15.892;2023-01-19T11:13:40;4.55;;;3.53;;
53650;SDS011;39552;45.776;15.892;2023-01-19T11:16:11;3.60;;;3.40;;
53650;SDS011;39552;45.776;15.892;2023-01-19T11:18:39;3.97;;;3.53;;
53650;SDS011;39552;45.776;15.892;2023-01-19T11:21:08;3.80;;;3.50;;
53650;SDS011;39552;45.776;15.892;2023-01-19T11:23:37;5.22;;;4.68;;
53650;SDS011;39552;45.776;15.892;2023-01-19T11:26:04;5.85;;;5.28;;
53650;SDS011;39552;45.776;15.892;2023-01-19T11:28:32;9.68;;;5.72;;
53650;SDS011;39552;45.776;15.892;2023-01-19T11:30:59;6.15;;;5.65;;
53650;SDS011;39552;45.776;15.892;2023-01-19T11:33:31;5.22;;;4.82;;
53650;SDS011;39552;45.776;15.892;2023-01-19T11:36:02;5.10;;;4.65;;
53650;SDS011;39552;45.776;15.892;2023-01-19T11:38:31;4.38;;;4.07;;
53650;SDS011;39552;45.776;15.892;2023-01-19T11:41:06;5.05;;;4.32;;
53650;SDS011;39552;45.776;15.892;2023-01-19T11:43:37;5.80;;;5.13;;
53650;SDS011;39552;45.776;15.892;2023-01-19T11:46:14;5.72;;;5.22;;
53650;SDS011;39552;45.776;15.892;2023-01-19T11:48:42;6.03;;;5.28;;
53650;SDS011;39552;45.776;15.892;2023-01-19T11:51:12;6.20;;;4.87;;
53650;SDS011;39552;45.776;15.892;2023-01-19T11:53:40;4.70;;;4.30;;
53650;SDS011;39552;45.776;15.892;2023-01-19T11:56:12;4.80;;;4.40;;
53650;SDS011;39552;45.776;15.892;2023-01-19T11:58:39;4.38;;;4.07;;
53650;SDS011;39552;45.776;15.892;2023-01-19T12:01:09;4.47;;;4.18;;
53650;SDS011;39552;45.776;15.892;2023-01-19T12:03:39;4.55;;;4.15;;
53650;SDS011;39552;45.776;15.892;2023-01-19T12:06:08;4.65;;;4.25;;
53650;SDS011;39552;45.776;15.892;2023-01-19T12:08:36;4.70;;;4.30;;
53650;SDS011;39552;45.776;15.892;2023-01-19T12:11:06;4.65;;;4.25;;
53650;SDS011;39552;45.776;15.892;2023-01-19T12:13:33;4.45;;;4.10;;
53650;SDS011;39552;45.776;15.892;2023-01-19T12:16:03;4.72;;;4.18;;
53650;SDS011;39552;45.776;15.892;2023-01-19T12:18:32;4.60;;;4.20;;
53650;SDS011;39552;45.776;15.892;2023-01-19T12:20:59;3.90;;;3.63;;
53650;SDS011;39552;45.776;15.892;2023-01-19T12:23:42;4.10;;;3.80;;
53650;SDS011;39552;45.776;15.892;2023-01-19T12:26:23;5.47;;;3.50;;
53650;SDS011;39552;45.776;15.892;2023-01-19T12:28:51;3.90;;;3.60;;
53650;SDS011;39552;45.776;15.892;2023-01-19T12:31:18;2.75;;;2.55;;
53650;SDS011;39552;45.776;15.892;2023-01-19T12:33:45;3.40;;;3.10;;
53650;SDS011;39552;45.776;15.892;2023-01-19T12:38:54;3.53;;;3.33;;
53650;SDS011;39552;45.776;15.892;2023-01-19T12:41:24;4.13;;;3.70;;
53650;SDS011;39552;45.776;15.892;2023-01-19T12:46:50;5.82;;;4.70;;
53650;SDS011;39552;45.776;15.892;2023-01-19T12:49:22;6.63;;;4.78;;
53650;SDS011;39552;45.776;15.892;2023-01-19T12:51:52;5.82;;;5.32;;
53650;SDS011;39552;45.776;15.892;2023-01-19T12:54:22;6.57;;;5.20;;
53650;SDS011;39552;45.776;15.892;2023-01-19T12:56:55;5.63;;;5.13;;
53650;SDS011;39552;45.776;15.892;2023-01-19T12:59:26;6.95;;;4.97;;
53650;SDS011;39552;45.776;15.892;2023-01-19T13:04:38;5.78;;;5.18;;
53650;SDS011;39552;45.776;15.892;2023-01-19T13:07:07;5.22;;;4.78;;
53650;SDS011;39552;45.776;15.892;2023-01-19T13:09:35;4.83;;;4.43;;
53650;SDS011;39552;45.776;15.892;2023-01-19T13:12:19;4.13;;;3.70;;
53650;SDS011;39552;45.776;15.892;2023-01-19T13:14:46;5.95;;;3.50;;
53650;SDS011;39552;45.776;15.892;2023-01-19T13:17:21;3.70;;;3.50;;
53650;SDS011;39552;45.776;15.892;2023-01-19T13:19:53;3.45;;;3.25;;
53650;SDS011;39552;45.776;15.892;2023-01-19T13:25:09;3.10;;;2.90;;
53650;SDS011;39552;45.776;15.892;2023-01-19T13:27:37;3.22;;;3.00;;
53650;SDS011;39552;45.776;15.892;2023-01-19T13:30:09;3.10;;;2.90;;
53650;SDS011;39552;45.776;15.892;2023-01-19T13:32:38;3.35;;;3.13;;
53650;SDS011;39552;45.776;15.892;2023-01-19T13:35:05;3.78;;;3.00;;
53650;SDS011;39552;45.776;15.892;2023-01-19T13:37:37;3.40;;;3.10;;
53650;SDS011;39552;45.776;15.892;2023-01-19T13:40:05;3.75;;;3.45;;
53650;SDS011;39552;45.776;15.892;2023-01-19T13:42:33;3.60;;;3.30;;
53650;SDS011;39552;45.776;15.892;2023-01-19T13:45:05;4.05;;;3.75;;
53650;SDS011;39552;45.776;15.892;2023-01-19T13:47:40;4.05;;;3.70;;
53650;SDS011;39552;45.776;15.892;2023-01-19T13:50:12;6.57;;;4.20;;
53650;SDS011;39552;45.776;15.892;2023-01-19T13:52:43;4.30;;;4.00;;
53650;SDS011;39552;45.776;15.892;2023-01-19T13:55:11;4.55;;;4.15;;
53650;SDS011;39552;45.776;15.892;2023-01-19T13:57:39;5.15;;;4.47;;
53650;SDS011;39552;45.776;15.892;2023-01-19T14:00:14;5.22;;;4.72;;
53650;SDS011;39552;45.776;15.892;2023-01-19T14:02:44;5.13;;;4.72;;
53650;SDS011;39552;45.776;15.892;2023-01-19T14:05:19;5.05;;;4.65;;
53650;SDS011;39552;45.776;15.892;2023-01-19T14:07:46;5.20;;;4.75;;
53650;SDS011;39552;45.776;15.892;2023-01-19T14:10:14;5.50;;;4.97;;
53650;SDS011;39552;45.776;15.892;2023-01-19T14:12:41;5.88;;;4.88;;
53650;SDS011;39552;45.776;15.892;2023-01-19T14:15:25;5.82;;;4.93;;
53650;SDS011;39552;45.776;15.892;2023-01-19T14:18:08;5.80;;;5.30;;
53650;SDS011;39552;45.776;15.892;2023-01-19T14:20:35;8.75;;;7.95;;
53650;SDS011;39552;45.776;15.892;2023-01-19T14:23:03;8.90;;;8.00;;
53650;SDS011;39552;45.776;15.892;2023-01-19T14:25:30;7.88;;;7.07;;
53650;SDS011;39552;45.776;15.892;2023-01-19T14:30:54;8.65;;;7.85;;
53650;SDS011;39552;45.776;15.892;2023-01-19T14:33:39;10.47;;;7.63;;
53650;SDS011;39552;45.776;15.892;2023-01-19T14:36:09;10.25;;;8.13;;
53650;SDS011;39552;45.776;15.892;2023-01-19T14:38:36;8.88;;;7.95;;
53650;SDS011;39552;45.776;15.892;2023-01-19T14:41:02;9.05;;;7.60;;
53650;SDS011;39552;45.776;15.892;2023-01-19T14:43:29;8.43;;;7.60;;
53650;SDS011;39552;45.776;15.892;2023-01-19T14:45:57;8.80;;;7.60;;
53650;SDS011;39552;45.776;15.892;2023-01-19T14:48:23;9.25;;;8.45;;
53650;SDS011;39552;45.776;15.892;2023-01-19T14:50:50;9.20;;;8.30;;
53650;SDS011;39552;45.776;15.892;2023-01-19T14:53:29;9.60;;;8.65;;
53650;SDS011;39552;45.776;15.892;2023-01-19T14:55:58;10.27;;;9.27;;
53650;SDS011;39552;45.776;15.892;2023-01-19T14:58:26;11.18;;;9.95;;
53650;SDS011;39552;45.776;15.892;2023-01-19T15:00:53;11.48;;;10.35;;
53650;SDS011;39552;45.776;15.892;2023-01-19T15:03:21;11.00;;;9.90;;